Time;durP1;ratioP1;P1;durP2;ratioP2;P2;SDS_P1;SDS_P2;PMS_P1;PMS_P2;Temp;Humidity;BMP_temperature;BMP_pressure;BME280_temperature;BME280_humidity;BME280_pressure;Samples;Min_cycle;Max_cycle;Signal;HPM_P1;HPM_P2
2024/03/09 00:01:37;;;;;;;;;;;;;;;2.88;95.26;100177.56;6151399;23;20392;-77
2024/03/09 00:04:03;;;;;;;;;;;;;;;2.81;95.80;100176.59;6153866;23;19924;-76
2024/03/09 00:06:29;;;;;;;;;;;;;;;2.80;95.80;100180.22;6151045;23;19944;-76
2024/03/09 00:08:59;;;;;;;;;;;;;;;2.76;95.58;100178.03;6159567;23;19932;-76
2024/03/09 00:11:25;;;;;;;;;;;;;;;2.80;95.81;100176.72;6156200;23;19928;-77
2024/03/09 00:13:51;;;;;;;;;;;;;;;2.78;95.35;100176.91;6155595;23;19944;-76
2024/03/09 00:16:16;;;;;;;;;;;;;;;2.70;96.03;100171.56;6153616;23;19967;-76
2024/03/09 00:18:41;;;;;;;;;;;;;;;2.65;96.75;100166.72;6153470;23;19913;-76
2024/03/09 00:21:08;;;;;;;;;;;;;;;2.66;96.55;100172.84;6154218;23;19913;-76
2024/03/09 00:23:34;;;;;;;;;;;;;;;2.64;96.77;100173.03;6152551;23;20336;-76
2024/03/09 00:26:05;;;;;;;;;;;;;;;2.62;96.56;100158.25;6155331;23;19955;-76
2024/03/09 00:28:30;;;;;;;;;;;;;;;2.64;97.22;100164.25;6155878;23;19917;-76
2024/03/09 00:30:56;;;;;;;;;;;;;;;2.60;97.11;100160.25;6154248;23;19967;-76
2024/03/09 00:33:22;;;;;;;;;;;;;;;2.55;97.28;100161.56;6159398;23;19957;-77
2024/03/09 00:35:48;;;;;;;;;;;;;;;2.53;97.38;100163.53;6163774;23;19917;-76
2024/03/09 00:38:19;;;;;;;;;;;;;;;2.49;98.37;100153.41;6159931;23;20297;-77
2024/03/09 00:40:44;;;;;;;;;;;;;;;2.52;97.94;100161.88;6158170;23;20246;-77
2024/03/09 00:43:09;;;;;;;;;;;;;;;2.49;97.81;100143.59;6157376;23;19927;-77
2024/03/09 00:45:35;;;;;;;;;;;;;;;2.48;97.77;100157.88;6155779;23;20459;-76
2024/03/09 00:48:00;;;;;;;;;;;;;;;2.43;97.77;100149.56;6154181;23;19990;-73
2024/03/09 00:50:26;;;;;;;;;;;;;;;2.39;98.69;100142.91;6155240;23;19923;-74
2024/03/09 00:52:52;;;;;;;;;;;;;;;2.39;98.33;100133.09;6156123;23;19932;-73
2024/03/09 00:55:17;;;;;;;;;;;;;;;2.34;98.92;100131.94;6155088;23;19913;-74
2024/03/09 00:57:44;;;;;;;;;;;;;;;2.35;98.92;100128.28;6156279;23;19919;-73
2024/03/09 01:00:15;;;;;;;;;;;;;;;2.38;99.14;100126.13;6160525;23;19904;-74
2024/03/09 01:02:44;;;;;;;;;;;;;;;2.39;98.80;100113.69;6159483;23;19912;-73
2024/03/09 01:05:09;;;;;;;;;;;;;;;2.36;98.42;100121.97;6153977;23;20345;-73
2024/03/09 01:07:37;;;;;;;;;;;;;;;2.30;98.81;100126.09;6155506;23;19916;-73
2024/03/09 01:10:06;;;;;;;;;;;;;;;2.34;99.05;100113.34;6153923;23;19996;-75
2024/03/09 01:12:33;;;;;;;;;;;;;;;2.32;99.27;100123.28;6154083;23;19928;-72
2024/03/09 01:14:58;;;;;;;;;;;;;;;2.33;98.96;100109.00;6155517;23;19913;-73
2024/03/09 01:17:24;;;;;;;;;;;;;;;2.30;99.19;100111.97;6154797;23;20271;-73
2024/03/09 01:19:52;;;;;;;;;;;;;;;2.26;99.52;100101.72;6154838;23;19970;-73
2024/03/09 01:22:17;;;;;;;;;;;;;;;2.22;99.94;100100.34;6154737;23;19967;-73
2024/03/09 01:24:43;;;;;;;;;;;;;;;2.15;100.00;100094.00;6152599;23;19917;-73
2024/03/09 01:27:08;;;;;;;;;;;;;;;2.16;100.00;100090.38;6152446;23;19967;-73
2024/03/09 01:29:33;;;;;;;;;;;;;;;2.20;100.00;100097.03;6153302;23;19913;-73
2024/03/09 01:32:03;;;;;;;;;;;;;;;2.23;99.98;100079.94;6152787;23;20279;-73
2024/03/09 01:34:28;;;;;;;;;;;;;;;2.18;100.00;100077.78;6153823;23;19939;-73
2024/03/09 01:36:54;;;;;;;;;;;;;;;2.11;100.00;100082.88;6154161;23;19916;-74
2024/03/09 01:39:19;;;;;;;;;;;;;;;2.11;100.00;100080.25;6152139;23;19917;-73
2024/03/09 01:41:44;;;;;;;;;;;;;;;2.08;100.00;100069.94;6152130;23;19920;-73
2024/03/09 01:44:14;;;;;;;;;;;;;;;2.05;100.00;100067.59;6153929;23;19917;-73
2024/03/09 01:46:49;;;;;;;;;;;;;;;1.99;100.00;100065.59;6151433;23;19919;-73
2024/03/09 01:49:14;;;;;;;;;;;;;;;1.93;100.00;100064.44;6126884;23;20277;-73
2024/03/09 01:51:45;;;;;;;;;;;;;;;1.96;100.00;100058.78;6153860;23;19963;-73
2024/03/09 01:54:10;;;;;;;;;;;;;;;2.00;100.00;100061.09;6151017;23;19916;-73
2024/03/09 01:56:38;;;;;;;;;;;;;;;1.97;100.00;100055.13;6126587;23;19967;-74
2024/03/09 01:59:06;;;;;;;;;;;;;;;1.91;100.00;100050.47;6154026;23;19928;-74
2024/03/09 02:01:31;;;;;;;;;;;;;;;1.99;100.00;100056.78;6151634;23;20389;-74
2024/03/09 02:03:57;;;;;;;;;;;;;;;2.01;100.00;100055.66;6126840;23;19940;-74
2024/03/09 02:06:30;;;;;;;;;;;;;;;1.98;100.00;100048.00;6153077;23;19940;-74
2024/03/09 02:08:58;;;;;;;;;;;;;;;1.93;100.00;100053.81;6151357;23;19991;-74
2024/03/09 02:11:26;;;;;;;;;;;;;;;1.86;100.00;100058.09;6152574;23;19913;-74
2024/03/09 02:13:52;;;;;;;;;;;;;;;1.81;100.00;100050.59;6127569;23;19923;-74
2024/03/09 02:16:18;;;;;;;;;;;;;;;1.76;100.00;100047.59;6151982;23;19913;-74
2024/03/09 02:18:48;;;;;;;;;;;;;;;1.73;100.00;100047.91;6151852;23;19995;-74
2024/03/09 02:21:14;;;;;;;;;;;;;;;1.72;100.00;100040.94;6153348;23;19912;-75
2024/03/09 02:23:39;;;;;;;;;;;;;;;1.70;100.00;100047.41;6152478;23;20603;-73
2024/03/09 02:26:05;;;;;;;;;;;;;;;1.72;100.00;100050.72;6126124;23;19970;-74
2024/03/09 02:28:31;;;;;;;;;;;;;;;1.75;100.00;100042.44;6152382;23;19917;-73
2024/03/09 02:30:56;;;;;;;;;;;;;;;1.72;100.00;100029.50;6152356;23;19919;-73
2024/03/09 02:33:21;;;;;;;;;;;;;;;1.65;100.00;100024.81;6152202;23;19917;-73
2024/03/09 02:35:49;;;;;;;;;;;;;;;1.63;100.00;100037.41;6151953;23;19913;-73
2024/03/09 02:38:17;;;;;;;;;;;;;;;1.57;100.00;100029.25;6152515;23;20099;-73
2024/03/09 02:40:43;;;;;;;;;;;;;;;1.52;100.00;100022.59;6152395;23;20246;-74
2024/03/09 02:43:11;;;;;;;;;;;;;;;1.46;100.00;100030.34;6152282;23;20314;-73
2024/03/09 02:45:37;;;;;;;;;;;;;;;1.44;100.00;100032.34;6152051;23;20203;-73
2024/03/09 02:48:02;;;;;;;;;;;;;;;1.36;100.00;100028.66;6152128;23;19921;-72
2024/03/09 02:50:27;;;;;;;;;;;;;;;1.31;100.00;100020.34;6152583;23;20330;-72
2024/03/09 02:52:53;;;;;;;;;;;;;;;1.35;100.00;100028.81;6152475;23;20340;-73
2024/03/09 02:55:18;;;;;;;;;;;;;;;1.35;100.00;100027.00;6152655;23;19917;-73
2024/03/09 02:57:43;;;;;;;;;;;;;;;1.34;100.00;100016.53;6152000;23;19913;-73
2024/03/09 03:00:21;;;;;;;;;;;;;;;1.25;100.00;100023.59;6151369;23;19913;-73
2024/03/09 03:05:30;;;;;;;;;;;;;;;1.24;100.00;100019.28;6152427;23;19939;-72
2024/03/09 03:07:55;;;;;;;;;;;;;;;1.20;100.00;100012.66;6151787;23;20345;-74
2024/03/09 03:10:20;;;;;;;;;;;;;;;1.20;100.00;100007.38;6152785;23;20344;-73
2024/03/09 03:12:46;;;;;;;;;;;;;;;1.16;100.00;100012.13;6152514;23;19908;-73
2024/03/09 03:15:14;;;;;;;;;;;;;;;1.16;100.00;100014.78;6153942;23;19923;-73
2024/03/09 03:17:39;;;;;;;;;;;;;;;1.08;100.00;100000.63;6160374;23;19900;-73
2024/03/09 03:20:13;;;;;;;;;;;;;;;1.09;100.00;100002.31;6157079;23;19913;-73
2024/03/09 03:22:39;;;;;;;;;;;;;;;1.11;100.00;100010.94;6154632;23;20004;-73
2024/03/09 03:25:09;;;;;;;;;;;;;;;1.11;100.00;100006.47;6153198;23;20326;-74
2024/03/09 03:27:35;;;;;;;;;;;;;;;1.12;100.00;100004.66;6155179;23;19948;-73
2024/03/09 03:30:00;;;;;;;;;;;;;;;1.12;100.00;100002.84;6153394;23;19917;-74
2024/03/09 03:32:25;;;;;;;;;;;;;;;1.17;100.00;100007.66;6153240;23;19958;-73
2024/03/09 03:34:51;;;;;;;;;;;;;;;1.16;100.00;100000.69;6155202;23;20282;-74
2024/03/09 03:37:17;;;;;;;;;;;;;;;1.15;100.00;100004.34;6154419;23;19967;-73
2024/03/09 03:39:43;;;;;;;;;;;;;;;1.10;100.00;100010.13;6152663;23;19932;-74
2024/03/09 03:42:08;;;;;;;;;;;;;;;1.11;100.00;100016.25;6156496;23;20039;-74
2024/03/09 03:44:35;;;;;;;;;;;;;;;1.06;100.00;100004.28;6161144;23;19913;-73
2024/03/09 03:47:00;;;;;;;;;;;;;;;1.05;100.00;100012.41;6155047;23;19916;-74
2024/03/09 03:49:27;;;;;;;;;;;;;;;0.99;100.00;100000.59;6155390;23;19965;-74
2024/03/09 03:51:52;;;;;;;;;;;;;;;0.99;100.00;100005.06;6154029;23;20000;-74
2024/03/09 03:54:17;;;;;;;;;;;;;;;0.99;100.00;99997.94;6153659;23;19951;-73
2024/03/09 03:56:43;;;;;;;;;;;;;;;0.99;100.00;99992.66;6154066;23;20019;-74
2024/03/09 03:59:09;;;;;;;;;;;;;;;1.02;100.00;99987.03;6154813;23;19913;-73
2024/03/09 04:01:34;;;;;;;;;;;;;;;0.95;100.00;99991.28;6152495;23;19913;-73
2024/03/09 04:04:00;;;;;;;;;;;;;;;0.91;100.00;99989.94;6155314;23;19939;-73
2024/03/09 04:06:25;;;;;;;;;;;;;;;0.93;100.00;99984.50;6155497;23;19917;-73
2024/03/09 04:08:50;;;;;;;;;;;;;;;0.89;100.00;99981.31;6158861;23;19932;-72
2024/03/09 04:11:17;;;;;;;;;;;;;;;0.83;100.00;99977.47;6155522;23;19913;-73
2024/03/09 04:13:42;;;;;;;;;;;;;;;0.80;100.00;99972.47;6153287;23;19917;-73
2024/03/09 04:16:07;;;;;;;;;;;;;;;0.78;100.00;99973.63;6153209;23;20321;-73
2024/03/09 04:18:36;;;;;;;;;;;;;;;0.76;100.00;99976.44;6154354;23;19919;-72
2024/03/09 04:21:02;;;;;;;;;;;;;;;0.74;100.00;99971.28;6154077;23;19916;-73
2024/03/09 04:23:30;;;;;;;;;;;;;;;0.75;100.00;99974.78;6154213;23;20306;-72
2024/03/09 04:25:56;;;;;;;;;;;;;;;0.77;100.00;99971.97;6154795;23;19919;-74
2024/03/09 04:28:21;;;;;;;;;;;;;;;0.79;100.00;99964.69;6155323;23;19995;-73
2024/03/09 04:30:48;;;;;;;;;;;;;;;0.78;100.00;99968.31;6155854;23;19912;-73
2024/03/09 04:33:15;;;;;;;;;;;;;;;0.80;100.00;99967.16;6157350;23;19920;-73
2024/03/09 04:35:47;;;;;;;;;;;;;;;0.79;100.00;99962.88;6161398;23;20341;-74
2024/03/09 04:38:13;;;;;;;;;;;;;;;0.72;100.00;99959.19;6163445;23;20282;-74
2024/03/09 04:40:39;;;;;;;;;;;;;;;0.72;100.00;99957.34;6154475;23;19940;-74
2024/03/09 04:43:05;;;;;;;;;;;;;;;0.77;100.00;99956.06;6154661;23;19915;-73
2024/03/09 04:45:31;;;;;;;;;;;;;;;0.79;100.00;99949.63;6153347;23;20001;-74
2024/03/09 04:48:00;;;;;;;;;;;;;;;0.83;100.00;99950.16;6154741;23;19913;-73
2024/03/09 04:50:26;;;;;;;;;;;;;;;0.85;100.00;99948.19;6156635;23;19916;-74
2024/03/09 04:52:51;;;;;;;;;;;;;;;0.80;100.00;99947.81;6155840;23;19920;-73
2024/03/09 04:55:17;;;;;;;;;;;;;;;0.79;100.00;99948.78;6154207;23;20527;-73
2024/03/09 04:57:48;;;;;;;;;;;;;;;0.87;100.00;99946.22;6153636;23;19928;-74
2024/03/09 05:00:16;;;;;;;;;;;;;;;0.86;100.00;99949.84;6153648;23;19923;-73
2024/03/09 05:02:45;;;;;;;;;;;;;;;0.88;100.00;99947.88;6152937;23;19916;-73
2024/03/09 05:05:10;;;;;;;;;;;;;;;0.85;100.00;99956.13;6153906;23;20296;-73
2024/03/09 05:07:35;;;;;;;;;;;;;;;0.84;100.00;99947.34;6152530;23;20293;-73
2024/03/09 05:10:01;;;;;;;;;;;;;;;0.78;100.00;99942.69;6152941;23;19920;-74
2024/03/09 05:12:26;;;;;;;;;;;;;;;0.74;100.00;99941.31;6153410;23;19912;-74
2024/03/09 05:14:51;;;;;;;;;;;;;;;0.66;100.00;99944.75;6153229;23;19943;-73
2024/03/09 05:17:16;;;;;;;;;;;;;;;0.64;100.00;99948.50;6151902;23;19920;-74
2024/03/09 05:19:42;;;;;;;;;;;;;;;0.65;100.00;99943.06;6154744;23;19959;-76
2024/03/09 05:22:07;;;;;;;;;;;;;;;0.64;100.00;99933.47;6153620;23;19943;-76
2024/03/09 05:24:40;;;;;;;;;;;;;;;0.59;100.00;99931.28;6152162;23;19939;-75
2024/03/09 05:27:07;;;;;;;;;;;;;;;0.58;100.00;99931.44;6154256;23;20054;-76
2024/03/09 05:29:33;;;;;;;;;;;;;;;0.62;100.00;99938.09;6153419;23;19999;-76
2024/03/09 05:31:58;;;;;;;;;;;;;;;0.60;100.00;99937.41;6152002;23;20003;-76
2024/03/09 05:34:23;;;;;;;;;;;;;;;0.61;100.00;99936.41;6154931;23;19919;-76
2024/03/09 05:36:49;;;;;;;;;;;;;;;0.60;100.00;99924.16;6152922;23;19932;-75
2024/03/09 05:39:15;;;;;;;;;;;;;;;0.59;100.00;99922.50;6152106;23;19913;-76
2024/03/09 05:41:40;;;;;;;;;;;;;;;0.56;100.00;99920.16;6153779;23;19924;-76
2024/03/09 05:44:06;;;;;;;;;;;;;;;0.57;100.00;99920.00;6153856;23;19936;-75
2024/03/09 05:46:31;;;;;;;;;;;;;;;0.54;100.00;99919.47;6151970;23;20010;-75
2024/03/09 05:48:56;;;;;;;;;;;;;;;0.47;100.00;99911.31;6149679;23;19920;-77
2024/03/09 05:51:21;;;;;;;;;;;;;;;0.46;100.00;99912.31;6153018;23;19960;-77
2024/03/09 05:53:56;;;;;;;;;;;;;;;0.50;100.00;99916.31;6152191;23;19916;-76
2024/03/09 05:56:21;;;;;;;;;;;;;;;0.53;100.00;99912.53;6153975;23;20279;-76
2024/03/09 05:58:52;;;;;;;;;;;;;;;0.53;100.00;99912.53;6152904;23;20341;-75
2024/03/09 06:01:26;;;;;;;;;;;;;;;0.54;100.00;99908.88;6151689;23;19912;-77
2024/03/09 06:03:52;;;;;;;;;;;;;;;0.56;100.00;99909.56;6154380;23;19919;-76
2024/03/09 06:06:17;;;;;;;;;;;;;;;0.60;100.00;99908.28;6152671;23;20262;-76
2024/03/09 06:08:42;;;;;;;;;;;;;;;0.56;100.00;99907.75;6152438;23;19917;-76
2024/03/09 06:11:07;;;;;;;;;;;;;;;0.54;100.00;99909.72;6153845;23;19909;-77
2024/03/09 06:13:33;;;;;;;;;;;;;;;0.58;100.00;99910.25;6151830;23;20341;-75
2024/03/09 06:16:00;;;;;;;;;;;;;;;0.66;100.00;99909.47;6151444;23;19912;-76
2024/03/09 06:18:26;;;;;;;;;;;;;;;0.69;100.00;99899.41;6153849;23;20055;-75
2024/03/09 06:20:57;;;;;;;;;;;;;;;0.69;100.00;99899.41;6152859;23;20311;-75
2024/03/09 06:23:22;;;;;;;;;;;;;;;0.73;100.00;99908.69;6152972;23;19912;-75
2024/03/09 06:25:47;;;;;;;;;;;;;;;0.74;100.00;99897.09;6152811;23;20079;-75
2024/03/09 06:28:16;;;;;;;;;;;;;;;0.80;100.00;99898.28;6152298;23;19916;-75
2024/03/09 06:30:41;;;;;;;;;;;;;;;0.96;100.00;99897.56;6152340;23;19912;-76
2024/03/09 06:33:06;;;;;;;;;;;;;;;1.19;100.00;99899.66;6152987;23;19971;-75
2024/03/09 06:35:32;;;;;;;;;;;;;;;1.41;100.00;99900.06;6153039;23;20369;-75
2024/03/09 06:38:01;;;;;;;;;;;;;;;1.62;100.00;99897.78;6152025;23;19924;-74
2024/03/09 06:40:26;;;;;;;;;;;;;;;2.07;100.00;99901.00;6153030;23;20299;-75
2024/03/09 06:42:55;;;;;;;;;;;;;;;2.74;96.89;99899.16;6152409;23;19908;-75
2024/03/09 06:45:22;;;;;;;;;;;;;;;2.62;96.23;99905.81;6152546;23;20208;-75
2024/03/09 06:47:47;;;;;;;;;;;;;;;2.45;97.09;99905.84;6152869;23;19983;-75
2024/03/09 06:50:14;;;;;;;;;;;;;;;2.33;96.55;99899.19;6159433;23;19917;-76
2024/03/09 06:52:39;;;;;;;;;;;;;;;2.21;97.60;99896.88;6154967;23;20034;-78
2024/03/09 06:55:05;;;;;;;;;;;;;;;2.29;98.38;99898.69;6151205;23;20365;-75
2024/03/09 06:57:30;;;;;;;;;;;;;;;2.32;97.87;99898.38;6151878;23;20371;-76
2024/03/09 06:59:55;;;;;;;;;;;;;;;2.79;95.82;99910.09;6152035;23;19916;-75
2024/03/09 07:02:21;;;;;;;;;;;;;;;3.15;93.29;99911.50;6152359;23;19920;-78
2024/03/09 07:04:50;;;;;;;;;;;;;;;3.55;90.93;99904.34;6152032;23;20322;-78
2024/03/09 07:07:15;;;;;;;;;;;;;;;3.68;89.14;99908.25;6152525;23;19952;-76
2024/03/09 07:09:43;;;;;;;;;;;;;;;3.92;87.04;99908.13;6152282;23;20346;-76
2024/03/09 07:12:08;;;;;;;;;;;;;;;4.23;85.37;99901.88;6154471;23;19920;-77
2024/03/09 07:14:35;;;;;;;;;;;;;;;4.36;84.85;99909.28;6154127;23;19986;-76
2024/03/09 07:17:01;;;;;;;;;;;;;;;4.18;83.53;99904.25;6137186;23;19927;-75
2024/03/09 07:19:26;;;;;;;;;;;;;;;4.16;85.55;99908.94;6160135;23;19995;-76
2024/03/09 07:21:51;;;;;;;;;;;;;;;4.08;84.60;99904.50;6153205;23;20238;-76
2024/03/09 07:24:19;;;;;;;;;;;;;;;4.07;85.33;99902.84;6152956;23;20242;-77
2024/03/09 07:26:48;;;;;;;;;;;;;;;3.97;85.18;99899.59;6153130;23;20289;-75
2024/03/09 07:29:13;;;;;;;;;;;;;;;3.87;85.24;99901.66;6155284;23;20285;-76
2024/03/09 07:31:41;;;;;;;;;;;;;;;3.78;87.02;99909.69;6153137;23;19956;-77
2024/03/09 07:34:17;;;;;;;;;;;;;;;4.00;86.90;99911.72;6153947;23;19941;-83
2024/03/09 07:36:43;;;;;;;;;;;;;;;4.21;84.71;99913.75;6150344;23;19912;-75
2024/03/09 07:39:20;;;;;;;;;;;;;;;4.39;83.65;99918.75;6146905;23;20334;-77
2024/03/09 07:41:45;;;;;;;;;;;;;;;4.64;83.17;99916.69;6154136;23;19913;-75
2024/03/09 07:44:12;;;;;;;;;;;;;;;4.72;82.19;99925.63;6161341;23;19923;-76
2024/03/09 07:46:37;;;;;;;;;;;;;;;5.23;79.52;99923.09;6154560;23;19940;-76
2024/03/09 07:49:03;;;;;;;;;;;;;;;5.67;77.61;99923.19;6153998;23;19916;-76
2024/03/09 07:51:29;;;;;;;;;;;;;;;5.83;76.39;99927.50;6152977;23;20385;-76
2024/03/09 07:53:58;;;;;;;;;;;;;;;6.19;74.74;99921.31;6151031;23;20322;-74
2024/03/09 07:56:23;;;;;;;;;;;;;;;6.13;75.25;99924.72;6153818;23;19919;-74
2024/03/09 07:58:50;;;;;;;;;;;;;;;6.12;73.76;99926.59;6152194;23;19913;-74
2024/03/09 08:01:18;;;;;;;;;;;;;;;5.72;75.81;99928.81;6151717;23;19936;-75
2024/03/09 08:03:45;;;;;;;;;;;;;;;5.57;76.38;99924.31;6154130;23;19935;-77
2024/03/09 08:06:10;;;;;;;;;;;;;;;5.36;76.83;99918.91;6153485;23;20212;-75
2024/03/09 08:08:35;;;;;;;;;;;;;;;5.00;78.52;99918.66;6151970;23;19936;-74
2024/03/09 08:11:00;;;;;;;;;;;;;;;4.99;79.09;99918.84;6157591;23;19936;-74
2024/03/09 08:13:28;;;;;;;;;;;;;;;4.61;80.89;99905.56;6159539;23;20210;-74
2024/03/09 08:15:53;;;;;;;;;;;;;;;4.71;80.66;99911.44;6153847;23;19917;-75
2024/03/09 08:18:18;;;;;;;;;;;;;;;4.72;81.05;99904.31;6155305;23;20003;-75
2024/03/09 08:20:44;;;;;;;;;;;;;;;4.57;82.63;99910.44;6152411;23;19936;-75
2024/03/09 08:23:09;;;;;;;;;;;;;;;4.46;82.50;99917.03;6153269;23;20045;-76
2024/03/09 08:25:36;;;;;;;;;;;;;;;4.49;82.96;99918.50;6155941;23;20349;-76
2024/03/09 08:28:04;;;;;;;;;;;;;;;4.29;84.35;99918.19;6153480;23;20250;-76
2024/03/09 08:30:31;;;;;;;;;;;;;;;4.48;83.98;99919.50;6153167;23;20140;-76
2024/03/09 08:32:58;;;;;;;;;;;;;;;4.53;83.93;99914.47;6152239;23;19920;-76
2024/03/09 08:35:24;;;;;;;;;;;;;;;4.50;84.50;99912.16;6150550;23;20298;-76
2024/03/09 08:37:52;;;;;;;;;;;;;;;4.52;84.46;99907.47;6150369;23;20048;-77
2024/03/09 08:40:18;;;;;;;;;;;;;;;4.49;84.61;99908.69;6152241;23;19912;-78
2024/03/09 08:42:44;;;;;;;;;;;;;;;4.42;85.71;99915.72;6151535;23;19914;-77
2024/03/09 08:45:09;;;;;;;;;;;;;;;4.62;84.25;99909.91;6150990;23;19912;-75
2024/03/09 08:47:35;;;;;;;;;;;;;;;4.59;83.19;99916.41;6151280;23;20058;-77
2024/03/09 08:50:00;;;;;;;;;;;;;;;4.63;83.71;99917.69;6148545;23;20298;-76
2024/03/09 08:52:26;;;;;;;;;;;;;;;4.54;83.44;99919.59;6149448;23;19951;-77
2024/03/09 08:54:51;;;;;;;;;;;;;;;4.61;83.00;99902.91;6150783;23;20020;-77
2024/03/09 08:57:19;;;;;;;;;;;;;;;4.63;83.48;99907.03;6151265;23;19917;-76
2024/03/09 08:59:48;;;;;;;;;;;;;;;4.95;81.48;99909.56;6151832;23;19987;-76
2024/03/09 09:02:14;;;;;;;;;;;;;;;5.10;81.76;99906.91;6151903;23;20311;-76
2024/03/09 09:04:41;;;;;;;;;;;;;;;5.22;79.54;99901.91;6126263;23;19932;-75
2024/03/09 09:07:06;;;;;;;;;;;;;;;5.26;79.53;99912.03;6151802;23;19913;-76
2024/03/09 09:09:31;;;;;;;;;;;;;;;5.51;78.32;99895.69;6151461;23;19999;-75
2024/03/09 09:11:57;;;;;;;;;;;;;;;5.76;77.37;99895.38;6152206;23;19913;-76
2024/03/09 09:14:23;;;;;;;;;;;;;;;5.81;77.34;99892.13;6152039;23;20037;-75
2024/03/09 09:16:49;;;;;;;;;;;;;;;5.87;76.74;99889.53;6151143;23;19996;-76
2024/03/09 09:19:14;;;;;;;;;;;;;;;5.99;75.97;99889.03;6152127;23;20043;-76
2024/03/09 09:21:39;;;;;;;;;;;;;;;6.46;74.97;99890.28;6150402;23;19916;-76
2024/03/09 09:24:05;;;;;;;;;;;;;;;6.87;73.76;99893.25;6151681;23;19912;-74
2024/03/09 09:26:30;;;;;;;;;;;;;;;7.53;69.93;99894.59;6149543;23;19929;-77
2024/03/09 09:28:56;;;;;;;;;;;;;;;7.97;68.46;99879.03;6151826;23;19967;-77
2024/03/09 09:31:21;;;;;;;;;;;;;;;8.46;65.89;99883.19;6150855;23;20384;-75
2024/03/09 09:33:46;;;;;;;;;;;;;;;8.71;63.54;99885.28;6152506;23;19996;-75
2024/03/09 09:36:16;;;;;;;;;;;;;;;9.04;61.94;99884.38;6150778;23;19952;-76
2024/03/09 09:38:41;;;;;;;;;;;;;;;9.80;59.31;99890.06;6149822;23;20362;-77
2024/03/09 09:41:12;;;;;;;;;;;;;;;9.66;58.67;99885.78;6152771;23;19917;-75
2024/03/09 09:59:25;;;;;;;;;;;;;;;13.18;46.91;99862.16;6146617;23;19921;-76
2024/03/09 10:01:51;;;;;;;;;;;;;;;12.22;48.55;99860.56;6152531;23;20000;-76
2024/03/09 10:04:16;;;;;;;;;;;;;;;12.83;48.13;99863.06;6153003;23;20415;-77
2024/03/09 10:06:41;;;;;;;;;;;;;;;13.01;47.44;99867.47;6150214;23;19916;-76
2024/03/09 10:09:07;;;;;;;;;;;;;;;12.61;46.75;99867.41;6151676;23;20249;-75
2024/03/09 10:11:35;;;;;;;;;;;;;;;12.27;48.43;99849.06;6152860;23;19912;-76
2024/03/09 10:14:01;;;;;;;;;;;;;;;12.01;49.12;99853.84;6151556;23;20020;-76
2024/03/09 10:16:27;;;;;;;;;;;;;;;12.03;49.58;99864.38;6153155;23;19925;-76
2024/03/09 10:18:52;;;;;;;;;;;;;;;11.95;49.57;99857.41;6153495;23;19937;-76
2024/03/09 10:21:27;;;;;;;;;;;;;;;12.65;49.04;99864.00;6153556;23;19963;-74
2024/03/09 10:24:06;;;;;;;;;;;;;;;13.68;46.34;99861.81;6154662;23;19920;-73
2024/03/09 10:26:31;;;;;;;;;;;;;;;13.53;45.66;99860.44;6154816;23;19917;-73
2024/03/09 10:29:00;;;;;;;;;;;;;;;14.25;43.80;99867.13;6160569;23;19919;-74
2024/03/09 10:31:26;;;;;;;;;;;;;;;14.89;42.18;99865.13;6156390;23;20302;-74
2024/03/09 10:33:54;;;;;;;;;;;;;;;14.13;43.10;99862.84;6151359;23;19987;-74
2024/03/09 10:36:21;;;;;;;;;;;;;;;13.83;44.15;99853.13;6150025;23;20318;-73
2024/03/09 10:38:46;;;;;;;;;;;;;;;13.93;44.05;99854.13;6151134;23;19995;-74
2024/03/09 10:41:11;;;;;;;;;;;;;;;14.33;43.77;99851.53;6125244;23;19955;-73
2024/03/09 10:43:36;;;;;;;;;;;;;;;14.49;43.92;99853.41;6125472;23;19920;-75
2024/03/09 10:46:05;;;;;;;;;;;;;;;15.53;41.32;99852.88;6152563;23;19912;-76
2024/03/09 10:48:33;;;;;;;;;;;;;;;15.25;42.40;99849.31;6125164;23;20270;-75
2024/03/09 10:51:02;;;;;;;;;;;;;;;14.19;44.30;99837.50;6125985;23;19987;-75
2024/03/09 10:53:35;;;;;;;;;;;;;;;13.76;44.86;99840.59;6154265;23;19912;-75
2024/03/09 10:56:15;;;;;;;;;;;;;;;13.70;45.81;99833.44;6165203;23;19967;-75
2024/03/09 10:58:40;;;;;;;;;;;;;;;12.63;47.86;99843.69;6128164;23;19912;-75
2024/03/09 11:01:08;;;;;;;;;;;;;;;12.54;48.32;99827.84;6126657;23;19913;-75
2024/03/09 11:03:35;;;;;;;;;;;;;;;12.69;48.86;99824.66;6150861;23;19912;-75
2024/03/09 11:06:00;;;;;;;;;;;;;;;11.71;51.34;99816.94;6149240;23;20019;-75
2024/03/09 11:08:25;;;;;;;;;;;;;;;11.76;52.49;99811.66;6150655;23;19912;-74
2024/03/09 11:10:51;;;;;;;;;;;;;;;11.50;52.42;99808.31;6124600;23;20329;-74
2024/03/09 11:13:19;;;;;;;;;;;;;;;10.95;54.13;99808.38;6124928;23;19916;-74
2024/03/09 11:15:51;;;;;;;;;;;;;;;11.55;53.96;99796.81;6151631;23;19916;-75
2024/03/09 11:18:16;;;;;;;;;;;;;;;12.56;50.17;99796.03;6152193;23;19916;-74
2024/03/09 11:20:48;;;;;;;;;;;;;;;12.65;49.33;99790.28;6157940;23;19923;-74
2024/03/09 11:23:15;;;;;;;;;;;;;;;13.66;47.26;99789.00;6166369;23;19955;-73
2024/03/09 11:25:48;;;;;;;;;;;;;;;14.36;44.66;99786.88;6154594;23;19917;-74
2024/03/09 11:28:13;;;;;;;;;;;;;;;15.09;43.77;99787.84;6153496;23;19963;-74
2024/03/09 11:30:42;;;;;;;;;;;;;;;14.34;44.55;99791.72;6154545;23;20031;-74
2024/03/09 11:33:10;;;;;;;;;;;;;;;15.73;42.62;99781.72;6127922;23;19991;-74
2024/03/09 11:35:36;;;;;;;;;;;;;;;16.11;41.75;99781.78;6153956;23;20329;-74
2024/03/09 11:38:19;;;;;;;;;;;;;;;15.86;40.74;99785.94;6154407;23;19923;-74
2024/03/09 11:40:46;;;;;;;;;;;;;;;16.11;40.75;99787.22;6161331;23;19920;-74
2024/03/09 11:43:14;;;;;;;;;;;;;;;15.65;41.63;99789.53;6164592;23;20012;-73
2024/03/09 11:45:39;;;;;;;;;;;;;;;15.35;41.46;99796.28;6161165;23;19943;-74
2024/03/09 11:48:05;;;;;;;;;;;;;;;16.96;39.77;99802.69;6168870;23;19952;-74
2024/03/09 11:50:30;;;;;;;;;;;;;;;17.06;38.71;99796.47;6165829;23;19975;-74
2024/03/09 11:52:56;;;;;;;;;;;;;;;17.13;39.27;99796.22;6155551;23;19924;-73
2024/03/09 11:55:21;;;;;;;;;;;;;;;17.09;38.49;99795.94;6157649;23;19923;-74
2024/03/09 11:57:52;;;;;;;;;;;;;;;17.69;38.16;99795.50;6153786;23;19913;-74
2024/03/09 12:00:17;;;;;;;;;;;;;;;18.04;36.81;99795.84;6154606;23;19951;-74
2024/03/09 12:02:42;;;;;;;;;;;;;;;18.16;36.53;99795.56;6158128;23;19928;-74
2024/03/09 12:05:15;;;;;;;;;;;;;;;18.27;36.95;99791.72;6160319;23;20285;-74
2024/03/09 12:07:40;;;;;;;;;;;;;;;18.35;36.36;99790.34;6158026;23;19913;-74
2024/03/09 12:10:06;;;;;;;;;;;;;;;18.06;37.38;99784.66;6127295;23;19909;-74
2024/03/09 12:12:33;;;;;;;;;;;;;;;18.12;37.55;99769.97;6125512;23;20382;-74
2024/03/09 12:15:00;;;;;;;;;;;;;;;18.06;36.71;99784.66;6152069;23;19916;-74
2024/03/09 12:17:26;;;;;;;;;;;;;;;16.99;38.79;99760.53;6127105;23;19924;-74
2024/03/09 12:19:51;;;;;;;;;;;;;;;15.24;41.65;99744.63;6151276;23;19913;-74
2024/03/09 12:22:16;;;;;;;;;;;;;;;14.32;44.98;99725.38;6150402;23;19927;-74
2024/03/09 12:24:41;;;;;;;;;;;;;;;14.24;45.43;99729.31;6152387;23;19913;-74
2024/03/09 12:27:08;;;;;;;;;;;;;;;13.21;47.69;99733.03;6123726;23;19913;-73
2024/03/09 12:29:33;;;;;;;;;;;;;;;13.35;48.32;99728.97;6126158;23;19917;-73
2024/03/09 12:31:58;;;;;;;;;;;;;;;13.75;47.57;99725.34;6153089;23;19912;-73
2024/03/09 12:34:24;;;;;;;;;;;;;;;14.95;44.58;99735.91;6125365;23;20076;-73
2024/03/09 12:36:51;;;;;;;;;;;;;;;14.81;44.91;99732.78;6153026;23;19916;-73
2024/03/09 12:39:16;;;;;;;;;;;;;;;14.48;44.75;99739.91;6153533;23;20313;-73
2024/03/09 12:41:41;;;;;;;;;;;;;;;14.68;44.38;99734.78;6150443;23;19928;-73
2024/03/09 12:44:06;;;;;;;;;;;;;;;14.56;44.93;99731.38;6152345;23;19928;-73
2024/03/09 12:46:40;;;;;;;;;;;;;;;15.55;43.18;99741.41;6152279;23;19916;-73
2024/03/09 12:49:08;;;;;;;;;;;;;;;15.72;42.04;99723.13;6150672;23;19960;-73
2024/03/09 12:51:35;;;;;;;;;;;;;;;15.96;42.07;99730.09;6151128;23;20234;-73
2024/03/09 12:54:00;;;;;;;;;;;;;;;16.82;40.75;99726.19;6152436;23;19912;-73
2024/03/09 12:56:30;;;;;;;;;;;;;;;16.80;40.16;99727.56;6150548;23;19939;-73
2024/03/09 12:59:01;;;;;;;;;;;;;;;17.06;39.43;99725.78;6151626;23;20281;-73
2024/03/09 13:01:29;;;;;;;;;;;;;;;17.54;38.87;99722.03;6151559;23;19912;-73
2024/03/09 13:03:55;;;;;;;;;;;;;;;17.23;38.59;99724.72;6151611;23;19921;-72